EJM2 KPBI-MYAM
Flight info
| Callsign | EJM2 |
|---|---|
| Flight time | 0h 33m |
| Altitude | 17000 |
| Route | MIXAE4 HALBI DCT ZFP BR70V MRRSH |
| Aircraft | GLF6/M-SFGHIRWXY/S |
Departure
| Time | 2026-05-05 21:03 |
|---|---|
| Airport | Palm Beach International Airport (KPBI) |
Arrival
| Time | 2026-05-05 21:36 |
|---|---|
| Airport | Leonard M. Thompson International Airport (MYAM) |
| Time | Latitude | Longitude | Altitude | Speed | Heading |
|---|---|---|---|---|---|
| 2026-05-05 20:48 | 26.67901 | -80.10255 | 23 ft | 0 kts | 272° |
| 2026-05-05 20:59 | 26.67901 | -80.10258 | 24 ft | 2 kts | 279° |
| 2026-05-05 20:59 | 26.67925 | -80.10278 | 22 ft | 5 kts | 352° |
| 2026-05-05 20:59 | 26.67979 | -80.10332 | 22 ft | 19 kts | 268° |
| 2026-05-05 21:00 | 26.67987 | -80.10525 | 23 ft | 19 kts | 273° |
| 2026-05-05 21:00 | 26.68052 | -80.10578 | 23 ft | 9 kts | 353° |
| 2026-05-05 21:00 | 26.68118 | -80.10620 | 23 ft | 13 kts | 4° |
| 2026-05-05 21:00 | 26.68200 | -80.10636 | 22 ft | 11 kts | 297° |
| 2026-05-05 21:01 | 26.68204 | -80.10668 | 23 ft | 11 kts | 269° |
| 2026-05-05 21:01 | 26.68209 | -80.10770 | 23 ft | 13 kts | 272° |
| 2026-05-05 21:01 | 26.68234 | -80.10829 | 24 ft | 8 kts | 340° |
| 2026-05-05 21:01 | 26.68308 | -80.10821 | 25 ft | 11 kts | 33° |
| 2026-05-05 21:02 | 26.68320 | -80.10787 | 25 ft | 0 kts | 95° |
| 2026-05-05 21:02 | 26.68306 | -80.10488 | 22 ft | 99 kts | 92° |
| 2026-05-05 21:02 | 26.68257 | -80.09479 | 375 ft | 168 kts | 92° |
| 2026-05-05 21:03 | 26.68253 | -80.09383 | 465 ft | 170 kts | 92° |
| 2026-05-05 21:03 | 26.68169 | -80.08006 | 1589 ft | 191 kts | 94° |
| 2026-05-05 21:03 | 26.68065 | -80.06503 | 2363 ft | 213 kts | 95° |
| 2026-05-05 21:04 | 26.68063 | -80.04739 | 3588 ft | 240 kts | 85° |
| 2026-05-05 21:04 | 26.68693 | -80.02868 | 4133 ft | 269 kts | 60° |
| 2026-05-05 21:04 | 26.69693 | -80.01105 | 4960 ft | 272 kts | 59° |
| 2026-05-05 21:04 | 26.70737 | -79.99335 | 5688 ft | 276 kts | 58° |
| 2026-05-05 21:05 | 26.71551 | -79.97425 | 6399 ft | 276 kts | 82° |
| 2026-05-05 21:05 | 26.71496 | -79.95285 | 7145 ft | 281 kts | 98° |
| 2026-05-05 21:05 | 26.71248 | -79.93094 | 7876 ft | 290 kts | 98° |
| 2026-05-05 21:05 | 26.70992 | -79.90849 | 8605 ft | 297 kts | 98° |
| 2026-05-05 21:06 | 26.70732 | -79.88557 | 9335 ft | 302 kts | 98° |
| 2026-05-05 21:06 | 26.70465 | -79.86215 | 10064 ft | 308 kts | 98° |
| 2026-05-05 21:06 | 26.70190 | -79.83800 | 10796 ft | 315 kts | 98° |
| 2026-05-05 21:06 | 26.69913 | -79.81374 | 11518 ft | 320 kts | 98° |
| 2026-05-05 21:07 | 26.69627 | -79.78869 | 12213 ft | 341 kts | 97° |
| 2026-05-05 21:07 | 26.69312 | -79.76125 | 12699 ft | 371 kts | 97° |
| 2026-05-05 21:07 | 26.68981 | -79.73231 | 13165 ft | 375 kts | 97° |
| 2026-05-05 21:07 | 26.68652 | -79.70355 | 13622 ft | 376 kts | 97° |
| 2026-05-05 21:08 | 26.68319 | -79.67468 | 14081 ft | 378 kts | 97° |
| 2026-05-05 21:08 | 26.67985 | -79.64521 | 14547 ft | 380 kts | 96° |
| 2026-05-05 21:08 | 26.67899 | -79.61603 | 15003 ft | 384 kts | 89° |
| 2026-05-05 21:08 | 26.67899 | -79.58569 | 15472 ft | 390 kts | 90° |
| 2026-05-05 21:09 | 26.67892 | -79.55540 | 15882 ft | 395 kts | 90° |
| 2026-05-05 21:09 | 26.67883 | -79.52451 | 15931 ft | 398 kts | 90° |
| 2026-05-05 21:09 | 26.67872 | -79.49407 | 15932 ft | 395 kts | 90° |
| 2026-05-05 21:09 | 26.67858 | -79.46310 | 15936 ft | 394 kts | 90° |
| 2026-05-05 21:10 | 26.67845 | -79.43265 | 15941 ft | 394 kts | 90° |
| 2026-05-05 21:10 | 26.67830 | -79.40222 | 15937 ft | 393 kts | 90° |
| 2026-05-05 21:10 | 26.67815 | -79.37156 | 15938 ft | 393 kts | 90° |
| 2026-05-05 21:10 | 26.67798 | -79.34106 | 15937 ft | 393 kts | 90° |
| 2026-05-05 21:11 | 26.67781 | -79.31046 | 15932 ft | 393 kts | 90° |
| 2026-05-05 21:11 | 26.67764 | -79.27991 | 15930 ft | 394 kts | 90° |
| 2026-05-05 21:11 | 26.67746 | -79.24899 | 15933 ft | 394 kts | 90° |
| 2026-05-05 21:11 | 26.67726 | -79.21851 | 15932 ft | 393 kts | 90° |
| 2026-05-05 21:12 | 26.67707 | -79.18801 | 15934 ft | 393 kts | 90° |
| 2026-05-05 21:12 | 26.67686 | -79.15727 | 15933 ft | 393 kts | 91° |
| 2026-05-05 21:12 | 26.67516 | -79.12698 | 15931 ft | 393 kts | 96° |
| 2026-05-05 21:12 | 26.67217 | -79.09640 | 15934 ft | 393 kts | 97° |
| 2026-05-05 21:13 | 26.66898 | -79.06594 | 15935 ft | 394 kts | 98° |
| 2026-05-05 21:13 | 26.66574 | -79.03574 | 15933 ft | 395 kts | 97° |
| 2026-05-05 21:13 | 26.66244 | -79.00525 | 15938 ft | 395 kts | 98° |
| 2026-05-05 21:13 | 26.65916 | -78.97508 | 15934 ft | 393 kts | 98° |
| 2026-05-05 21:14 | 26.65587 | -78.94483 | 15935 ft | 395 kts | 98° |
| 2026-05-05 21:14 | 26.65252 | -78.91431 | 15938 ft | 394 kts | 98° |
| 2026-05-05 21:14 | 26.64922 | -78.88421 | 15938 ft | 394 kts | 98° |
| 2026-05-05 21:14 | 26.64588 | -78.85384 | 15937 ft | 393 kts | 97° |
| 2026-05-05 21:15 | 26.64253 | -78.82342 | 15948 ft | 395 kts | 98° |
| 2026-05-05 21:15 | 26.63915 | -78.79271 | 15855 ft | 396 kts | 98° |
| 2026-05-05 21:15 | 26.63583 | -78.76266 | 15492 ft | 393 kts | 98° |
| 2026-05-05 21:15 | 26.63238 | -78.73161 | 15263 ft | 414 kts | 98° |
| 2026-05-05 21:16 | 26.62880 | -78.69925 | 15015 ft | 417 kts | 98° |
| 2026-05-05 21:16 | 26.62528 | -78.66758 | 14753 ft | 414 kts | 98° |
| 2026-05-05 21:16 | 26.62172 | -78.63567 | 14476 ft | 408 kts | 98° |
| 2026-05-05 21:16 | 26.61826 | -78.60458 | 14205 ft | 407 kts | 98° |
| 2026-05-05 21:17 | 26.61472 | -78.57307 | 13945 ft | 404 kts | 98° |
| 2026-05-05 21:17 | 26.61129 | -78.54245 | 13691 ft | 401 kts | 98° |
| 2026-05-05 21:17 | 26.60780 | -78.51131 | 13421 ft | 399 kts | 98° |
| 2026-05-05 21:17 | 26.60436 | -78.48086 | 13164 ft | 397 kts | 98° |
| 2026-05-05 21:18 | 26.60093 | -78.45042 | 12902 ft | 396 kts | 98° |
| 2026-05-05 21:18 | 26.59751 | -78.42009 | 12647 ft | 393 kts | 98° |
| 2026-05-05 21:18 | 26.59407 | -78.38980 | 12386 ft | 392 kts | 98° |
| 2026-05-05 21:18 | 26.59068 | -78.35988 | 12134 ft | 388 kts | 98° |
| 2026-05-05 21:19 | 26.58728 | -78.32998 | 11869 ft | 386 kts | 98° |
| 2026-05-05 21:19 | 26.58391 | -78.30035 | 11600 ft | 385 kts | 98° |
| 2026-05-05 21:19 | 26.58053 | -78.27076 | 11330 ft | 382 kts | 99° |
| 2026-05-05 21:19 | 26.57724 | -78.24195 | 11021 ft | 376 kts | 98° |
| 2026-05-05 21:20 | 26.57392 | -78.21292 | 10703 ft | 375 kts | 99° |
| 2026-05-05 21:20 | 26.57062 | -78.18416 | 10393 ft | 372 kts | 99° |
| 2026-05-05 21:20 | 26.56732 | -78.15549 | 10100 ft | 370 kts | 98° |
| 2026-05-05 21:20 | 26.56406 | -78.12717 | 9811 ft | 367 kts | 99° |
| 2026-05-05 21:21 | 26.56082 | -78.09903 | 9520 ft | 364 kts | 99° |
| 2026-05-05 21:21 | 26.55780 | -78.07292 | 9244 ft | 362 kts | 99° |
| 2026-05-05 21:21 | 26.55734 | -78.06895 | 9202 ft | 362 kts | 98° |
| 2026-05-05 21:22 | 26.55413 | -78.04120 | 8915 ft | 359 kts | 99° |
| 2026-05-05 21:22 | 26.55094 | -78.01365 | 8622 ft | 358 kts | 99° |
| 2026-05-05 21:22 | 26.54775 | -77.98621 | 8331 ft | 354 kts | 99° |
| 2026-05-05 21:22 | 26.54460 | -77.95921 | 8041 ft | 351 kts | 98° |
| 2026-05-05 21:23 | 26.54259 | -77.94190 | 7856 ft | 348 kts | 98° |
| 2026-05-05 21:23 | 26.54041 | -77.92320 | 7650 ft | 345 kts | 98° |
| 2026-05-05 21:23 | 26.53738 | -77.89719 | 7354 ft | 330 kts | 98° |
| 2026-05-05 21:24 | 26.53552 | -77.87267 | 7232 ft | 311 kts | 88° |
| 2026-05-05 21:24 | 26.53684 | -77.84934 | 7086 ft | 295 kts | 93° |
| 2026-05-05 21:24 | 26.53550 | -77.82659 | 6674 ft | 291 kts | 95° |
| 2026-05-05 21:24 | 26.53415 | -77.80438 | 6267 ft | 288 kts | 95° |
| 2026-05-05 21:25 | 26.53283 | -77.78193 | 5855 ft | 286 kts | 95° |
| 2026-05-05 21:25 | 26.53169 | -77.76243 | 5553 ft | 281 kts | 95° |
| 2026-05-05 21:25 | 26.53104 | -77.75109 | 5375 ft | 278 kts | 95° |
| 2026-05-05 21:25 | 26.52983 | -77.73001 | 5041 ft | 273 kts | 95° |
| 2026-05-05 21:26 | 26.52862 | -77.70898 | 4798 ft | 265 kts | 94° |
| 2026-05-05 21:26 | 26.52746 | -77.68881 | 4598 ft | 257 kts | 95° |
| 2026-05-05 21:26 | 26.52631 | -77.66898 | 4398 ft | 255 kts | 95° |
| 2026-05-05 21:26 | 26.52519 | -77.64962 | 4203 ft | 253 kts | 95° |
| 2026-05-05 21:27 | 26.52405 | -77.62997 | 4007 ft | 252 kts | 95° |
| 2026-05-05 21:27 | 26.52290 | -77.61032 | 3812 ft | 252 kts | 95° |
| 2026-05-05 21:27 | 26.52178 | -77.59097 | 3604 ft | 251 kts | 95° |
| 2026-05-05 21:27 | 26.52064 | -77.57174 | 3425 ft | 247 kts | 95° |
| 2026-05-05 21:28 | 26.51954 | -77.55278 | 3243 ft | 245 kts | 96° |
| 2026-05-05 21:28 | 26.51845 | -77.53397 | 3021 ft | 243 kts | 95° |
| 2026-05-05 21:28 | 26.51733 | -77.51508 | 2822 ft | 241 kts | 94° |
| 2026-05-05 21:28 | 26.51623 | -77.49637 | 2640 ft | 241 kts | 94° |
| 2026-05-05 21:29 | 26.51513 | -77.47777 | 2440 ft | 242 kts | 95° |
| 2026-05-05 21:29 | 26.51402 | -77.45906 | 2237 ft | 239 kts | 94° |
| 2026-05-05 21:29 | 26.51296 | -77.44108 | 2120 ft | 222 kts | 95° |
| 2026-05-05 21:29 | 26.51195 | -77.42403 | 1961 ft | 215 kts | 94° |
| 2026-05-05 21:30 | 26.51098 | -77.40771 | 1953 ft | 215 kts | 93° |
| 2026-05-05 21:30 | 26.50997 | -77.39094 | 1968 ft | 223 kts | 93° |
| 2026-05-05 21:30 | 26.50898 | -77.37414 | 1931 ft | 211 kts | 95° |
| 2026-05-05 21:30 | 26.50802 | -77.35786 | 1937 ft | 209 kts | 94° |
| 2026-05-05 21:31 | 26.50705 | -77.34203 | 1964 ft | 204 kts | 94° |
| 2026-05-05 21:31 | 26.50610 | -77.32635 | 1959 ft | 203 kts | 95° |
| 2026-05-05 21:31 | 26.50515 | -77.31054 | 1964 ft | 204 kts | 95° |
| 2026-05-05 21:31 | 26.50459 | -77.29452 | 1958 ft | 204 kts | 90° |
| 2026-05-05 21:32 | 26.50502 | -77.27869 | 1961 ft | 204 kts | 89° |
| 2026-05-05 21:32 | 26.50546 | -77.26274 | 1960 ft | 205 kts | 89° |
| 2026-05-05 21:32 | 26.50589 | -77.24704 | 1961 ft | 205 kts | 89° |
| 2026-05-05 21:32 | 26.50632 | -77.23144 | 1950 ft | 186 kts | 89° |
| 2026-05-05 21:33 | 26.50667 | -77.21871 | 1963 ft | 154 kts | 89° |
| 2026-05-05 21:33 | 26.50699 | -77.20684 | 1889 ft | 151 kts | 89° |
| 2026-05-05 21:33 | 26.50729 | -77.19508 | 1724 ft | 151 kts | 89° |
| 2026-05-05 21:33 | 26.50760 | -77.18338 | 1530 ft | 151 kts | 90° |
| 2026-05-05 21:34 | 26.50790 | -77.17178 | 1345 ft | 144 kts | 89° |
| 2026-05-05 21:34 | 26.50817 | -77.16177 | 1119 ft | 119 kts | 89° |
| 2026-05-05 21:34 | 26.50840 | -77.15288 | 955 ft | 111 kts | 90° |
| 2026-05-05 21:34 | 26.50862 | -77.14439 | 836 ft | 110 kts | 90° |
| 2026-05-05 21:35 | 26.50884 | -77.13583 | 685 ft | 111 kts | 89° |
| 2026-05-05 21:35 | 26.50906 | -77.12711 | 542 ft | 113 kts | 89° |
| 2026-05-05 21:35 | 26.50931 | -77.11812 | 395 ft | 119 kts | 89° |
| 2026-05-05 21:35 | 26.50958 | -77.10877 | 338 ft | 119 kts | 89° |
| 2026-05-05 21:36 | 26.50979 | -77.09959 | 155 ft | 123 kts | 88° |
| 2026-05-05 21:36 | 26.51001 | -77.09031 | 24 ft | 114 kts | 89° |
| 2026-05-05 21:36 | 26.51019 | -77.08282 | 18 ft | 74 kts | 87° |
| 2026-05-05 21:36 | 26.51030 | -77.07821 | 19 ft | 46 kts | 87° |
| 2026-05-05 21:37 | 26.51048 | -77.07628 | 19 ft | 17 kts | 50° |
| 2026-05-05 21:37 | 26.51117 | -77.07632 | 19 ft | 15 kts | 354° |
| 2026-05-05 21:37 | 26.51159 | -77.07720 | 18 ft | 15 kts | 268° |
| 2026-05-05 21:37 | 26.51156 | -77.07842 | 18 ft | 15 kts | 267° |
| 2026-05-05 21:38 | 26.51151 | -77.07967 | 18 ft | 16 kts | 271° |
| 2026-05-05 21:38 | 26.51149 | -77.08096 | 18 ft | 16 kts | 270° |
| 2026-05-05 21:38 | 26.51145 | -77.08228 | 18 ft | 17 kts | 269° |
| 2026-05-05 21:38 | 26.51142 | -77.08342 | 17 ft | 5 kts | 271° |
| 2026-05-05 21:39 | 26.51140 | -77.08392 | 17 ft | 6 kts | 269° |
| 2026-05-05 21:39 | 26.51172 | -77.08421 | 17 ft | 7 kts | 353° |
| 2026-05-05 21:39 | 26.51221 | -77.08421 | 17 ft | 6 kts | 0° |
| 2026-05-05 21:39 | 26.51284 | -77.08434 | 17 ft | 11 kts | 315° |
| 2026-05-05 21:40 | 26.51331 | -77.08446 | 16 ft | 4 kts | 86° |
| 2026-05-05 21:40 | 26.51331 | -77.08444 | 16 ft | 0 kts | 90° |